This is the latest recevied weather packets stored in our database for station/object HB9FHL-13. If no packets are shown the sender has not sent any weather packets the latest 10 day(s).
| Time | Temp. | Humidity | Pressure | Rain* | Wind** | Luminosity | Snow |
|---|---|---|---|---|---|---|---|
| 1777467730 | 14.44° C | - | 1007.4 hPa | 2.29 mm | - | - | - |
| 1777467429 | 15° C | - | 1018.9 hPa | 2.29 mm | - | - | - |
| 1777467129 | 13.33° C | - | 1015.9 hPa | 2.29 mm | - | - | - |
| 1777466828 | 13.89° C | - | 1019.4 hPa | 2.29 mm | - | - | - |
| 1777466527 | 12.78° C | - | 1014.2 hPa | 2.29 mm | - | - | - |
| 1777466227 | 12.78° C | - | 1018.3 hPa | 2.29 mm | - | - | - |
| 1777465927 | 12.78° C | - | 1018.5 hPa | 2.29 mm | - | - | - |
| 1777465626 | 12.78° C | - | 1022.5 hPa | 2.29 mm | - | - | - |
| 1777465326 | 12.78° C | - | 1018.1 hPa | 2.29 mm | - | - | - |
| 1777465025 | 12.78° C | - | 1016.5 hPa | 2.29 mm | - | - | - |
| 1777464723 | 13.33° C | - | 1018.1 hPa | 2.29 mm | - | - | - |
| 1777464422 | 12.78° C | - | 1018.1 hPa | 2.29 mm | - | - | - |
| 1777464122 | 12.78° C | - | 1017.8 hPa | 2.29 mm | - | - | - |
| 1777463821 | 13.33° C | - | 1019.5 hPa | 2.29 mm | - | - | - |
| 1777463521 | 12.22° C | - | 1016.9 hPa | 2.29 mm | - | - | - |
| 1777463220 | 12.78° C | - | 1021.1 hPa | 2.29 mm | - | - | - |
| 1777462952 | 13.33° C | - | 1021.5 hPa | 2.29 mm | - | - | - |
| 1777462918 | 13.33° C | - | 1021.5 hPa | 2.29 mm | - | - | - |
| 1777462618 | 12.78° C | - | 1022.4 hPa | 2.29 mm | - | - | - |
| 1777462354 | 12.22° C | - | 1020.4 hPa | 2.29 mm | - | - | - |
| 1777462317 | 12.22° C | - | 1020.4 hPa | 2.29 mm | - | - | - |
| 1777462017 | 11.67° C | - | 1017.1 hPa | 2.29 mm | - | - | - |
| 1777461716 | 12.22° C | - | 1023.4 hPa | 2.29 mm | - | - | - |
| 1777461416 | 12.22° C | - | 1014.8 hPa | 2.29 mm | - | - | - |
| 1777461115 | 12.22° C | - | 1016.7 hPa | 2.29 mm | - | - | - |
* Rain since midnight (hover to see other rain measurements)
** Current wind speed in m/s (hover to see current wind gust speed)